sensor_id;sensor_type;location;lat;lon;timestamp;pressure;altitude;pressure_sealevel;temperature;humidity
62103;BME280;48077;48.104;11.702;2023-04-25T00:01:43;94890.16;;;5.06;100.00
62103;BME280;48077;48.104;11.702;2023-04-25T00:07:40;94860.72;;;5.02;100.00
62103;BME280;48077;48.104;11.702;2023-04-25T00:10:06;94874.03;;;5.14;99.89
62103;BME280;48077;48.104;11.702;2023-04-25T00:12:29;94867.13;;;5.13;99.99
62103;BME280;48077;48.104;11.702;2023-04-25T00:14:53;94869.53;;;5.21;99.98
62103;BME280;48077;48.104;11.702;2023-04-25T00:17:16;94866.22;;;5.26;99.12
62103;BME280;48077;48.104;11.702;2023-04-25T00:19:40;94839.03;;;5.19;99.55
62103;BME280;48077;48.104;11.702;2023-04-25T00:22:03;94850.56;;;5.24;99.06
62103;BME280;48077;48.104;11.702;2023-04-25T00:24:28;94854.22;;;5.30;98.97
62103;BME280;48077;48.104;11.702;2023-04-25T00:26:52;94875.09;;;5.38;98.88
62103;BME280;48077;48.104;11.702;2023-04-25T00:29:15;94874.88;;;5.40;98.88
62103;BME280;48077;48.104;11.702;2023-04-25T00:31:38;94875.25;;;5.43;98.20
62103;BME280;48077;48.104;11.702;2023-04-25T00:34:02;94867.31;;;5.43;97.96
62103;BME280;48077;48.104;11.702;2023-04-25T00:36:25;94880.06;;;5.53;97.31
62103;BME280;48077;48.104;11.702;2023-04-25T00:38:49;94884.94;;;5.56;97.61
62103;BME280;48077;48.104;11.702;2023-04-25T00:41:13;94888.38;;;5.57;97.10
62103;BME280;48077;48.104;11.702;2023-04-25T00:43:36;94879.84;;;5.55;96.97
62103;BME280;48077;48.104;11.702;2023-04-25T00:46:00;94862.41;;;5.47;96.35
62103;BME280;48077;48.104;11.702;2023-04-25T00:48:24;94855.88;;;5.50;96.19
62103;BME280;48077;48.104;11.702;2023-04-25T00:50:52;94863.53;;;5.58;96.26
62103;BME280;48077;48.104;11.702;2023-04-25T00:53:16;94865.16;;;5.59;96.82
62103;BME280;48077;48.104;11.702;2023-04-25T00:55:39;94864.13;;;5.60;96.86
62103;BME280;48077;48.104;11.702;2023-04-25T00:58:03;94871.41;;;5.64;96.53
62103;BME280;48077;48.104;11.702;2023-04-25T01:00:26;94853.19;;;5.56;96.68
62103;BME280;48077;48.104;11.702;2023-04-25T01:02:50;94870.41;;;5.65;97.04
62103;BME280;48077;48.104;11.702;2023-04-25T01:05:13;94848.31;;;5.53;97.12
62103;BME280;48077;48.104;11.702;2023-04-25T01:07:37;94839.19;;;5.49;96.75
62103;BME280;48077;48.104;11.702;2023-04-25T01:10:01;94864.13;;;5.60;96.64
62103;BME280;48077;48.104;11.702;2023-04-25T01:12:24;94853.66;;;5.46;96.90
62103;BME280;48077;48.104;11.702;2023-04-25T01:14:47;94850.84;;;5.41;96.92
62103;BME280;48077;48.104;11.702;2023-04-25T01:17:11;94849.44;;;5.39;96.79
62103;BME280;48077;48.104;11.702;2023-04-25T01:19:34;94857.31;;;5.45;96.55
62103;BME280;48077;48.104;11.702;2023-04-25T01:21:58;94864.06;;;5.41;96.75
62103;BME280;48077;48.104;11.702;2023-04-25T01:24:22;94861.22;;;5.43;97.22
62103;BME280;48077;48.104;11.702;2023-04-25T01:26:45;94854.53;;;5.40;97.13
62103;BME280;48077;48.104;11.702;2023-04-25T01:29:12;94852.53;;;5.36;97.05
62103;BME280;48077;48.104;11.702;2023-04-25T01:31:36;94844.44;;;5.31;97.30
62103;BME280;48077;48.104;11.702;2023-04-25T01:34:00;94844.00;;;5.34;97.00
62103;BME280;48077;48.104;11.702;2023-04-25T01:36:26;94857.56;;;5.44;96.65
62103;BME280;48077;48.104;11.702;2023-04-25T01:38:50;94833.06;;;5.30;96.78
62103;BME280;48077;48.104;11.702;2023-04-25T01:41:14;94853.13;;;5.38;97.39
62103;BME280;48077;48.104;11.702;2023-04-25T01:43:38;94854.00;;;5.32;97.09
62103;BME280;48077;48.104;11.702;2023-04-25T01:46:02;94851.56;;;5.30;96.73
62103;BME280;48077;48.104;11.702;2023-04-25T01:48:27;94850.38;;;5.26;97.16
62103;BME280;48077;48.104;11.702;2023-04-25T01:50:51;94853.66;;;5.21;97.52
62103;BME280;48077;48.104;11.702;2023-04-25T01:53:14;94857.31;;;5.20;98.07
62103;BME280;48077;48.104;11.702;2023-04-25T01:55:38;94825.75;;;5.00;97.88
62103;BME280;48077;48.104;11.702;2023-04-25T01:58:02;94852.53;;;5.11;97.99
62103;BME280;48077;48.104;11.702;2023-04-25T02:00:26;94854.38;;;5.03;97.62
62103;BME280;48077;48.104;11.702;2023-04-25T02:02:49;94854.81;;;5.00;97.59
62103;BME280;48077;48.104;11.702;2023-04-25T02:05:13;94852.78;;;4.96;97.44
62103;BME280;48077;48.104;11.702;2023-04-25T02:07:37;94853.44;;;4.91;97.54
62103;BME280;48077;48.104;11.702;2023-04-25T02:10:00;94846.97;;;4.87;98.07
62103;BME280;48077;48.104;11.702;2023-04-25T02:12:26;94833.84;;;4.74;97.99
62103;BME280;48077;48.104;11.702;2023-04-25T02:14:50;94846.63;;;4.77;98.03
62103;BME280;48077;48.104;11.702;2023-04-25T02:17:14;94849.69;;;4.74;97.87
62103;BME280;48077;48.104;11.702;2023-04-25T02:19:37;94828.22;;;4.63;98.49
62103;BME280;48077;48.104;11.702;2023-04-25T02:22:01;94831.44;;;4.65;98.69
62103;BME280;48077;48.104;11.702;2023-04-25T02:24:24;94819.94;;;4.53;98.47
62103;BME280;48077;48.104;11.702;2023-04-25T02:26:47;94858.66;;;4.66;98.42
62103;BME280;48077;48.104;11.702;2023-04-25T02:29:12;94837.22;;;4.49;98.91
62103;BME280;48077;48.104;11.702;2023-04-25T02:31:36;94850.63;;;4.54;98.92
62103;BME280;48077;48.104;11.702;2023-04-25T02:33:59;94849.00;;;4.46;99.02
62103;BME280;48077;48.104;11.702;2023-04-25T02:36:22;94845.19;;;4.42;99.84
62103;BME280;48077;48.104;11.702;2023-04-25T02:38:47;94850.47;;;4.42;100.00
62103;BME280;48077;48.104;11.702;2023-04-25T02:41:10;94838.06;;;4.43;100.00
62103;BME280;48077;48.104;11.702;2023-04-25T02:43:33;94828.72;;;4.40;100.00
62103;BME280;48077;48.104;11.702;2023-04-25T02:45:57;94847.78;;;4.49;100.00
62103;BME280;48077;48.104;11.702;2023-04-25T02:48:20;94826.50;;;4.44;100.00
62103;BME280;48077;48.104;11.702;2023-04-25T02:50:43;94820.97;;;4.45;100.00
62103;BME280;48077;48.104;11.702;2023-04-25T02:53:07;94832.97;;;4.48;100.00
62103;BME280;48077;48.104;11.702;2023-04-25T02:55:31;94817.97;;;4.35;100.00
62103;BME280;48077;48.104;11.702;2023-04-25T02:57:54;94822.84;;;4.38;100.00
62103;BME280;48077;48.104;11.702;2023-04-25T03:00:18;94816.16;;;4.36;100.00
62103;BME280;48077;48.104;11.702;2023-04-25T03:02:42;94832.34;;;4.53;100.00
62103;BME280;48077;48.104;11.702;2023-04-25T03:05:05;94832.72;;;4.56;100.00
62103;BME280;48077;48.104;11.702;2023-04-25T03:07:29;94826.00;;;4.54;100.00
62103;BME280;48077;48.104;11.702;2023-04-25T03:09:52;94817.88;;;4.55;100.00
62103;BME280;48077;48.104;11.702;2023-04-25T03:12:15;94829.19;;;4.69;100.00
62103;BME280;48077;48.104;11.702;2023-04-25T03:14:39;94835.44;;;4.75;100.00
62103;BME280;48077;48.104;11.702;2023-04-25T03:17:02;94835.63;;;4.80;100.00
62103;BME280;48077;48.104;11.702;2023-04-25T03:19:26;94836.44;;;4.80;100.00
62103;BME280;48077;48.104;11.702;2023-04-25T03:21:49;94826.47;;;4.82;100.00
62103;BME280;48077;48.104;11.702;2023-04-25T03:24:12;94847.75;;;4.94;99.16
62103;BME280;48077;48.104;11.702;2023-04-25T03:26:36;94837.78;;;4.96;98.44
62103;BME280;48077;48.104;11.702;2023-04-25T03:28:59;94838.31;;;5.05;98.06
62103;BME280;48077;48.104;11.702;2023-04-25T03:31:23;94842.38;;;5.07;98.22
62103;BME280;48077;48.104;11.702;2023-04-25T03:33:46;94828.13;;;5.09;98.15
62103;BME280;48077;48.104;11.702;2023-04-25T03:36:10;94836.88;;;5.09;99.11
62103;BME280;48077;48.104;11.702;2023-04-25T03:38:33;94830.34;;;5.12;99.76
62103;BME280;48077;48.104;11.702;2023-04-25T03:40:56;94824.84;;;5.13;100.00
62103;BME280;48077;48.104;11.702;2023-04-25T03:43:22;94829.94;;;5.08;100.00
62103;BME280;48077;48.104;11.702;2023-04-25T03:45:45;94823.22;;;5.12;100.00
62103;BME280;48077;48.104;11.702;2023-04-25T03:48:09;94818.50;;;5.14;100.00
62103;BME280;48077;48.104;11.702;2023-04-25T03:50:32;94815.50;;;5.11;100.00
62103;BME280;48077;48.104;11.702;2023-04-25T03:52:55;94816.38;;;5.04;100.00
62103;BME280;48077;48.104;11.702;2023-04-25T03:55:19;94820.47;;;5.00;100.00
62103;BME280;48077;48.104;11.702;2023-04-25T03:57:43;94814.34;;;5.00;99.93
62103;BME280;48077;48.104;11.702;2023-04-25T04:00:07;94830.22;;;5.00;100.00
62103;BME280;48077;48.104;11.702;2023-04-25T04:02:33;94809.38;;;4.85;99.97
62103;BME280;48077;48.104;11.702;2023-04-25T04:04:57;94820.28;;;4.95;100.00
62103;BME280;48077;48.104;11.702;2023-04-25T04:07:21;94810.22;;;4.85;99.07
62103;BME280;48077;48.104;11.702;2023-04-25T04:09:44;94805.97;;;4.78;99.41
62103;BME280;48077;48.104;11.702;2023-04-25T04:12:08;94817.53;;;4.83;99.65
62103;BME280;48077;48.104;11.702;2023-04-25T04:14:31;94796.66;;;4.69;99.45
62103;BME280;48077;48.104;11.702;2023-04-25T04:16:54;94800.31;;;4.74;99.58
62103;BME280;48077;48.104;11.702;2023-04-25T04:19:18;94807.22;;;4.75;99.64
62103;BME280;48077;48.104;11.702;2023-04-25T04:21:41;94819.34;;;4.83;99.71
62103;BME280;48077;48.104;11.702;2023-04-25T04:24:05;94815.69;;;4.84;100.00
62103;BME280;48077;48.104;11.702;2023-04-25T04:26:28;94824.41;;;4.84;99.96
62103;BME280;48077;48.104;11.702;2023-04-25T04:28:52;94793.44;;;4.66;100.00
62103;BME280;48077;48.104;11.702;2023-04-25T04:31:17;94802.94;;;4.74;100.00
62103;BME280;48077;48.104;11.702;2023-04-25T04:33:44;94794.63;;;4.71;100.00
62103;BME280;48077;48.104;11.702;2023-04-25T04:36:08;94801.53;;;4.72;100.00
62103;BME280;48077;48.104;11.702;2023-04-25T04:38:31;94806.38;;;4.75;100.00
62103;BME280;48077;48.104;11.702;2023-04-25T04:40:55;94814.88;;;4.83;100.00
62103;BME280;48077;48.104;11.702;2023-04-25T04:43:19;94805.78;;;4.79;100.00
62103;BME280;48077;48.104;11.702;2023-04-25T04:45:42;94829.06;;;4.89;100.00
62103;BME280;48077;48.104;11.702;2023-04-25T04:48:06;94828.84;;;4.91;100.00
62103;BME280;48077;48.104;11.702;2023-04-25T04:50:29;94828.69;;;4.85;100.00
62103;BME280;48077;48.104;11.702;2023-04-25T04:52:55;94848.16;;;4.91;100.00
62103;BME280;48077;48.104;11.702;2023-04-25T04:55:18;94852.00;;;4.95;100.00
62103;BME280;48077;48.104;11.702;2023-04-25T04:57:42;94838.22;;;4.86;99.82
62103;BME280;48077;48.104;11.702;2023-04-25T05:00:05;94833.53;;;4.89;99.56
62103;BME280;48077;48.104;11.702;2023-04-25T05:02:33;94827.41;;;4.95;99.20
62103;BME280;48077;48.104;11.702;2023-04-25T05:04:57;94806.47;;;4.93;98.60
62103;BME280;48077;48.104;11.702;2023-04-25T05:07:20;94797.59;;;4.88;99.37
62103;BME280;48077;48.104;11.702;2023-04-25T05:09:44;94804.00;;;4.98;99.32
62103;BME280;48077;48.104;11.702;2023-04-25T05:12:07;94814.69;;;5.10;99.46
62103;BME280;48077;48.104;11.702;2023-04-25T05:14:31;94792.59;;;4.98;98.97
62103;BME280;48077;48.104;11.702;2023-04-25T05:16:56;94804.13;;;5.10;99.04
62103;BME280;48077;48.104;11.702;2023-04-25T05:19:20;94821.34;;;5.19;99.13
62103;BME280;48077;48.104;11.702;2023-04-25T05:21:43;94804.34;;;5.09;99.12
62103;BME280;48077;48.104;11.702;2023-04-25T05:24:06;94819.09;;;5.23;99.57
62103;BME280;48077;48.104;11.702;2023-04-25T05:26:30;94808.94;;;5.20;99.46
62103;BME280;48077;48.104;11.702;2023-04-25T05:28:54;94815.41;;;5.24;99.50
62103;BME280;48077;48.104;11.702;2023-04-25T05:31:17;94809.31;;;5.23;99.45
62103;BME280;48077;48.104;11.702;2023-04-25T05:33:40;94803.22;;;5.23;99.69
62103;BME280;48077;48.104;11.702;2023-04-25T05:36:04;94797.75;;;5.18;99.32
62103;BME280;48077;48.104;11.702;2023-04-25T05:38:28;94805.81;;;5.30;100.00
62103;BME280;48077;48.104;11.702;2023-04-25T05:40:51;94802.31;;;5.29;100.00
62103;BME280;48077;48.104;11.702;2023-04-25T05:43:15;94785.34;;;5.18;100.00
62103;BME280;48077;48.104;11.702;2023-04-25T05:45:38;94810.44;;;5.34;100.00
62103;BME280;48077;48.104;11.702;2023-04-25T05:48:01;94812.50;;;5.32;100.00
62103;BME280;48077;48.104;11.702;2023-04-25T05:50:25;94818.31;;;5.41;99.77
62103;BME280;48077;48.104;11.702;2023-04-25T05:52:49;94793.97;;;5.32;99.18
62103;BME280;48077;48.104;11.702;2023-04-25T05:55:13;94797.44;;;5.33;99.33
62103;BME280;48077;48.104;11.702;2023-04-25T05:57:36;94750.44;;;5.10;99.02
62103;BME280;48077;48.104;11.702;2023-04-25T06:00:00;94792.47;;;5.43;100.00
62103;BME280;48077;48.104;11.702;2023-04-25T06:02:24;94802.28;;;5.61;99.58
62103;BME280;48077;48.104;11.702;2023-04-25T06:04:50;94784.34;;;5.63;99.34
62103;BME280;48077;48.104;11.702;2023-04-25T06:07:14;94815.78;;;5.96;98.64
62103;BME280;48077;48.104;11.702;2023-04-25T06:09:37;94824.25;;;6.05;97.94
62103;BME280;48077;48.104;11.702;2023-04-25T06:12:02;94809.03;;;6.00;97.28
62103;BME280;48077;48.104;11.702;2023-04-25T06:14:26;94795.00;;;5.93;96.69
62103;BME280;48077;48.104;11.702;2023-04-25T06:16:49;94793.72;;;6.02;94.34
62103;BME280;48077;48.104;11.702;2023-04-25T06:19:16;94803.50;;;6.02;93.25
62103;BME280;48077;48.104;11.702;2023-04-25T06:21:39;94788.53;;;5.89;90.29
62103;BME280;48077;48.104;11.702;2023-04-25T06:24:03;94828.16;;;6.02;88.49
62103;BME280;48077;48.104;11.702;2023-04-25T06:26:26;94837.13;;;5.76;90.97
62103;BME280;48077;48.104;11.702;2023-04-25T06:28:50;94827.09;;;5.60;91.98
62103;BME280;48077;48.104;11.702;2023-04-25T06:31:13;94829.81;;;5.28;94.93
62103;BME280;48077;48.104;11.702;2023-04-25T06:33:36;94823.25;;;5.05;98.31
62103;BME280;48077;48.104;11.702;2023-04-25T06:36:00;94813.59;;;4.93;100.00
62103;BME280;48077;48.104;11.702;2023-04-25T06:38:25;94789.34;;;4.71;100.00
62103;BME280;48077;48.104;11.702;2023-04-25T06:40:49;94780.22;;;4.66;100.00
62103;BME280;48077;48.104;11.702;2023-04-25T06:43:15;94801.69;;;4.83;100.00
62103;BME280;48077;48.104;11.702;2023-04-25T06:45:38;94813.16;;;4.96;100.00
62103;BME280;48077;48.104;11.702;2023-04-25T06:48:04;94804.47;;;4.89;100.00
62103;BME280;48077;48.104;11.702;2023-04-25T06:50:27;94804.47;;;4.89;100.00
62103;BME280;48077;48.104;11.702;2023-04-25T06:52:51;94821.22;;;5.07;100.00
62103;BME280;48077;48.104;11.702;2023-04-25T06:55:14;94828.56;;;5.31;100.00
62103;BME280;48077;48.104;11.702;2023-04-25T06:57:37;94824.78;;;5.45;100.00
62103;BME280;48077;48.104;11.702;2023-04-25T07:00:01;94801.84;;;5.39;100.00
62103;BME280;48077;48.104;11.702;2023-04-25T07:02:24;94801.69;;;5.59;100.00
62103;BME280;48077;48.104;11.702;2023-04-25T07:04:48;94808.88;;;5.70;100.00
62103;BME280;48077;48.104;11.702;2023-04-25T07:07:11;94800.06;;;5.76;100.00
62103;BME280;48077;48.104;11.702;2023-04-25T07:09:34;94811.34;;;5.90;100.00
62103;BME280;48077;48.104;11.702;2023-04-25T07:11:58;94803.16;;;5.92;100.00
62103;BME280;48077;48.104;11.702;2023-04-25T07:14:22;94821.81;;;6.03;100.00
62103;BME280;48077;48.104;11.702;2023-04-25T07:16:45;94800.13;;;5.95;100.00
62103;BME280;48077;48.104;11.702;2023-04-25T07:19:09;94806.00;;;6.15;100.00
62103;BME280;48077;48.104;11.702;2023-04-25T07:21:33;94807.03;;;6.14;99.03
62103;BME280;48077;48.104;11.702;2023-04-25T07:23:56;94831.31;;;6.30;98.07
62103;BME280;48077;48.104;11.702;2023-04-25T07:26:20;94808.19;;;6.37;97.08
62103;BME280;48077;48.104;11.702;2023-04-25T07:28:43;94807.69;;;6.28;95.94
62103;BME280;48077;48.104;11.702;2023-04-25T07:31:07;94812.22;;;6.39;95.99
62103;BME280;48077;48.104;11.702;2023-04-25T07:33:30;94812.31;;;6.33;94.78
62103;BME280;48077;48.104;11.702;2023-04-25T07:35:54;94813.94;;;6.34;94.66
62103;BME280;48077;48.104;11.702;2023-04-25T07:38:18;94819.16;;;6.40;93.72
62103;BME280;48077;48.104;11.702;2023-04-25T07:40:41;94812.38;;;6.44;94.62
62103;BME280;48077;48.104;11.702;2023-04-25T07:43:04;94793.25;;;6.42;94.27
62103;BME280;48077;48.104;11.702;2023-04-25T07:45:28;94805.50;;;6.55;91.97
62103;BME280;48077;48.104;11.702;2023-04-25T07:47:51;94809.69;;;6.63;93.42
62103;BME280;48077;48.104;11.702;2023-04-25T07:50:14;94806.38;;;6.67;93.22
62103;BME280;48077;48.104;11.702;2023-04-25T07:52:38;94788.13;;;6.59;92.08
62103;BME280;48077;48.104;11.702;2023-04-25T07:55:01;94786.19;;;6.66;92.68
62103;BME280;48077;48.104;11.702;2023-04-25T07:57:25;94797.41;;;6.80;89.41
62103;BME280;48077;48.104;11.702;2023-04-25T07:59:48;94798.75;;;7.01;88.58
62103;BME280;48077;48.104;11.702;2023-04-25T08:02:11;94815.03;;;7.17;88.45
62103;BME280;48077;48.104;11.702;2023-04-25T08:04:35;94813.91;;;7.36;89.35
62103;BME280;48077;48.104;11.702;2023-04-25T08:06:58;94813.94;;;7.48;88.35
62103;BME280;48077;48.104;11.702;2023-04-25T08:09:21;94793.28;;;7.38;86.21
62103;BME280;48077;48.104;11.702;2023-04-25T08:11:45;94793.28;;;7.38;85.70
62103;BME280;48077;48.104;11.702;2023-04-25T08:14:08;94803.41;;;7.41;85.29
62103;BME280;48077;48.104;11.702;2023-04-25T08:16:31;94793.84;;;7.40;85.14
62103;BME280;48077;48.104;11.702;2023-04-25T08:18:55;94786.00;;;7.45;84.42
62103;BME280;48077;48.104;11.702;2023-04-25T08:21:21;94795.34;;;7.72;83.83
62103;BME280;48077;48.104;11.702;2023-04-25T08:23:44;94809.97;;;7.98;79.45
62103;BME280;48077;48.104;11.702;2023-04-25T08:26:08;94778.09;;;8.09;80.16
62103;BME280;48077;48.104;11.702;2023-04-25T08:28:31;94786.56;;;8.47;80.06
62103;BME280;48077;48.104;11.702;2023-04-25T08:30:54;94779.22;;;8.66;79.26
62103;BME280;48077;48.104;11.702;2023-04-25T08:33:18;94787.06;;;8.89;78.51
62103;BME280;48077;48.104;11.702;2023-04-25T08:35:41;94782.66;;;8.95;74.46
62103;BME280;48077;48.104;11.702;2023-04-25T08:38:04;94792.34;;;9.01;74.68
62103;BME280;48077;48.104;11.702;2023-04-25T08:40:28;94793.81;;;9.09;73.87
62103;BME280;48077;48.104;11.702;2023-04-25T08:42:53;94795.13;;;9.06;73.61
62103;BME280;48077;48.104;11.702;2023-04-25T08:45:17;94811.63;;;9.08;73.32
62103;BME280;48077;48.104;11.702;2023-04-25T08:47:41;94789.34;;;8.98;73.67
62103;BME280;48077;48.104;11.702;2023-04-25T08:50:06;94810.97;;;9.01;73.38
62103;BME280;48077;48.104;11.702;2023-04-25T08:52:36;94801.59;;;8.82;71.47
62103;BME280;48077;48.104;11.702;2023-04-25T08:55:01;94810.13;;;8.84;72.79
62103;BME280;48077;48.104;11.702;2023-04-25T08:57:26;94808.28;;;8.84;74.51
62103;BME280;48077;48.104;11.702;2023-04-25T08:59:50;94809.50;;;8.94;73.17
62103;BME280;48077;48.104;11.702;2023-04-25T09:02:14;94799.00;;;8.87;73.48
62103;BME280;48077;48.104;11.702;2023-04-25T09:04:40;94803.09;;;9.06;72.03
62103;BME280;48077;48.104;11.702;2023-04-25T09:07:04;94782.31;;;8.91;70.79
62103;BME280;48077;48.104;11.702;2023-04-25T09:09:29;94805.66;;;9.18;71.34
62103;BME280;48077;48.104;11.702;2023-04-25T09:11:54;94794.88;;;9.25;69.09
62103;BME280;48077;48.104;11.702;2023-04-25T09:14:20;94790.44;;;9.47;71.56
62103;BME280;48077;48.104;11.702;2023-04-25T09:19:23;94801.44;;;10.29;64.78
62103;BME280;48077;48.104;11.702;2023-04-25T09:21:55;94810.47;;;10.45;63.14
62103;BME280;48077;48.104;11.702;2023-04-25T09:26:57;94781.28;;;10.60;60.99
62103;BME280;48077;48.104;11.702;2023-04-25T09:29:29;94799.50;;;10.90;59.24
62103;BME280;48077;48.104;11.702;2023-04-25T09:31:52;94793.03;;;11.13;55.58
62103;BME280;48077;48.104;11.702;2023-04-25T09:34:16;94800.06;;;11.25;55.18
62103;BME280;48077;48.104;11.702;2023-04-25T09:36:40;94779.13;;;11.39;53.50
62103;BME280;48077;48.104;11.702;2023-04-25T09:39:12;94797.25;;;11.69;54.11
62103;BME280;48077;48.104;11.702;2023-04-25T09:41:39;94746.47;;;10.99;53.13
62103;BME280;48077;48.104;11.702;2023-04-25T09:44:12;94769.56;;;11.10;54.02
62103;BME280;48077;48.104;11.702;2023-04-25T09:46:36;94806.34;;;11.08;55.48
62103;BME280;48077;48.104;11.702;2023-04-25T09:49:08;94807.41;;;11.07;55.68
62103;BME280;48077;48.104;11.702;2023-04-25T09:51:31;94787.69;;;10.59;55.38
62103;BME280;48077;48.104;11.702;2023-04-25T09:53:54;94795.34;;;10.50;57.26
62103;BME280;48077;48.104;11.702;2023-04-25T09:56:18;94809.47;;;10.51;56.94
62103;BME280;48077;48.104;11.702;2023-04-25T09:58:42;94802.03;;;10.75;55.22
62103;BME280;48077;48.104;11.702;2023-04-25T10:01:08;94799.31;;;10.48;55.51
62103;BME280;48077;48.104;11.702;2023-04-25T10:03:33;94812.41;;;10.99;55.95
62103;BME280;48077;48.104;11.702;2023-04-25T10:06:02;94794.91;;;11.13;55.20
62103;BME280;48077;48.104;11.702;2023-04-25T10:08:32;94811.41;;;11.37;54.42
62103;BME280;48077;48.104;11.702;2023-04-25T10:10:58;94808.97;;;11.63;54.59
62103;BME280;48077;48.104;11.702;2023-04-25T10:13:23;94784.22;;;11.78;52.16
62103;BME280;48077;48.104;11.702;2023-04-25T10:15:46;94798.00;;;12.02;48.92
62103;BME280;48077;48.104;11.702;2023-04-25T10:18:30;94799.84;;;12.49;51.24
62103;BME280;48077;48.104;11.702;2023-04-25T10:20:57;94783.44;;;12.25;50.09
62103;BME280;48077;48.104;11.702;2023-04-25T10:23:21;94793.25;;;12.09;51.70
62103;BME280;48077;48.104;11.702;2023-04-25T10:25:45;94793.94;;;11.89;52.50
62103;BME280;48077;48.104;11.702;2023-04-25T10:28:08;94777.94;;;11.57;53.44
62103;BME280;48077;48.104;11.702;2023-04-25T10:30:32;94808.41;;;11.61;54.87
62103;BME280;48077;48.104;11.702;2023-04-25T10:32:55;94795.22;;;11.49;53.58
62103;BME280;48077;48.104;11.702;2023-04-25T10:35:29;94780.28;;;11.48;52.98
62103;BME280;48077;48.104;11.702;2023-04-25T10:38:09;94803.75;;;12.26;51.40
62103;BME280;48077;48.104;11.702;2023-04-25T10:40:35;94792.72;;;12.65;48.89
62103;BME280;48077;48.104;11.702;2023-04-25T10:46:00;94781.19;;;12.59;46.47
62103;BME280;48077;48.104;11.702;2023-04-25T10:48:34;94786.19;;;12.45;49.05
62103;BME280;48077;48.104;11.702;2023-04-25T10:51:08;94785.25;;;12.14;49.34
62103;BME280;48077;48.104;11.702;2023-04-25T10:53:33;94791.38;;;11.72;51.37
62103;BME280;48077;48.104;11.702;2023-04-25T10:55:56;94809.59;;;11.10;58.54
62103;BME280;48077;48.104;11.702;2023-04-25T10:58:22;94828.88;;;10.07;68.93
62103;BME280;48077;48.104;11.702;2023-04-25T11:00:45;94844.06;;;9.22;72.30
62103;BME280;48077;48.104;11.702;2023-04-25T11:03:09;94853.69;;;8.54;78.70
62103;BME280;48077;48.104;11.702;2023-04-25T11:05:36;94846.47;;;8.02;83.45
62103;BME280;48077;48.104;11.702;2023-04-25T11:07:59;94866.22;;;7.83;86.20
62103;BME280;48077;48.104;11.702;2023-04-25T11:10:30;94859.84;;;7.60;88.71
62103;BME280;48077;48.104;11.702;2023-04-25T11:12:54;94868.53;;;7.67;89.54
62103;BME280;48077;48.104;11.702;2023-04-25T11:15:18;94856.16;;;7.61;87.81
62103;BME280;48077;48.104;11.702;2023-04-25T11:17:41;94859.63;;;7.74;86.38
62103;BME280;48077;48.104;11.702;2023-04-25T11:20:07;94882.59;;;7.91;86.98
62103;BME280;48077;48.104;11.702;2023-04-25T11:22:34;94862.28;;;7.97;86.95
62103;BME280;48077;48.104;11.702;2023-04-25T11:24:57;94890.81;;;8.14;86.53
62103;BME280;48077;48.104;11.702;2023-04-25T11:27:21;94884.44;;;8.26;89.19
62103;BME280;48077;48.104;11.702;2023-04-25T11:29:44;94893.31;;;8.56;92.46
62103;BME280;48077;48.104;11.702;2023-04-25T11:32:11;94896.91;;;8.49;86.09
62103;BME280;48077;48.104;11.702;2023-04-25T11:34:34;94893.78;;;8.29;86.16
62103;BME280;48077;48.104;11.702;2023-04-25T11:36:58;94877.78;;;8.00;84.15
62103;BME280;48077;48.104;11.702;2023-04-25T11:39:26;94894.63;;;7.94;82.34
62103;BME280;48077;48.104;11.702;2023-04-25T11:41:50;94920.81;;;7.90;81.49
62103;BME280;48077;48.104;11.702;2023-04-25T11:44:17;94911.22;;;7.66;86.82
62103;BME280;48077;48.104;11.702;2023-04-25T11:46:42;94925.97;;;7.62;89.14
62103;BME280;48077;48.104;11.702;2023-04-25T11:49:05;94902.72;;;7.34;90.91
62103;BME280;48077;48.104;11.702;2023-04-25T11:51:29;94915.47;;;7.25;92.84
62103;BME280;48077;48.104;11.702;2023-04-25T11:53:53;94929.47;;;7.32;94.18
62103;BME280;48077;48.104;11.702;2023-04-25T11:56:16;94939.78;;;7.40;93.78
62103;BME280;48077;48.104;11.702;2023-04-25T11:58:56;94931.03;;;7.52;92.95
62103;BME280;48077;48.104;11.702;2023-04-25T12:01:37;94933.94;;;7.62;94.91
62103;BME280;48077;48.104;11.702;2023-04-25T12:04:22;94921.00;;;7.54;93.04
62103;BME280;48077;48.104;11.702;2023-04-25T12:06:47;94945.59;;;7.61;94.55
62103;BME280;48077;48.104;11.702;2023-04-25T12:09:14;94931.34;;;7.43;94.47
62103;BME280;48077;48.104;11.702;2023-04-25T12:11:45;94934.09;;;7.37;93.29
62103;BME280;48077;48.104;11.702;2023-04-25T12:14:10;94942.06;;;7.37;94.39
62103;BME280;48077;48.104;11.702;2023-04-25T12:16:41;94920.88;;;7.18;94.73
62103;BME280;48077;48.104;11.702;2023-04-25T12:19:05;94944.38;;;7.45;93.74
62103;BME280;48077;48.104;11.702;2023-04-25T12:21:28;94955.19;;;7.32;91.28
62103;BME280;48077;48.104;11.702;2023-04-25T12:23:52;94937.16;;;7.22;94.73
62103;BME280;48077;48.104;11.702;2023-04-25T12:26:18;94934.28;;;7.23;93.46
62103;BME280;48077;48.104;11.702;2023-04-25T12:28:45;94941.66;;;7.21;94.76
62103;BME280;48077;48.104;11.702;2023-04-25T12:31:10;94941.09;;;7.31;94.75
62103;BME280;48077;48.104;11.702;2023-04-25T12:33:37;94943.28;;;7.22;95.10
62103;BME280;48077;48.104;11.702;2023-04-25T12:36:02;94952.88;;;7.35;95.80
62103;BME280;48077;48.104;11.702;2023-04-25T12:38:36;94952.66;;;7.37;95.14
62103;BME280;48077;48.104;11.702;2023-04-25T12:41:00;94951.59;;;7.26;94.88
62103;BME280;48077;48.104;11.702;2023-04-25T12:43:23;94957.59;;;7.33;93.98
62103;BME280;48077;48.104;11.702;2023-04-25T12:45:51;94959.25;;;7.34;94.71
62103;BME280;48077;48.104;11.702;2023-04-25T12:48:14;94944.34;;;7.33;95.30
62103;BME280;48077;48.104;11.702;2023-04-25T12:50:38;94946.03;;;7.46;94.91
62103;BME280;48077;48.104;11.702;2023-04-25T12:53:01;94947.09;;;7.57;93.33
62103;BME280;48077;48.104;11.702;2023-04-25T12:55:27;94946.03;;;7.58;92.90